Time;durP1;ratioP1;P1;durP2;ratioP2;P2;SDS_P1;SDS_P2;PMS_P1;PMS_P2;Temp;Humidity;BMP_temperature;BMP_pressure;BME280_temperature;BME280_humidity;BME280_pressure;Samples;Min_cycle;Max_cycle;Signal;HPM_P1;HPM_P2
2021/01/09 00:00:06;;;;;;;6.95;4.03;;;6.70;84.30;;;;;;5033205;28;20048;-54
2021/01/09 00:02:31;;;;;;;12.45;4.55;;;6.70;84.30;;;;;;5032885;28;20079;-54
2021/01/09 00:04:57;;;;;;;12.43;5.10;;;6.60;84.30;;;;;;5030710;28;20034;-54
2021/01/09 00:07:23;;;;;;;11.60;4.88;;;6.70;84.30;;;;;;5012539;28;20069;-54
2021/01/09 00:09:48;;;;;;;7.72;4.28;;;6.60;84.20;;;;;;5013049;28;20041;-54
2021/01/09 00:12:14;;;;;;;8.45;4.55;;;6.60;84.20;;;;;;5013494;28;20033;-54
2021/01/09 00:14:39;;;;;;;12.15;4.15;;;6.70;84.20;;;;;;5013700;28;20022;-54
2021/01/09 00:17:06;;;;;;;8.18;3.70;;;6.70;84.20;;;;;;5013756;28;20030;-53
2021/01/09 00:19:32;;;;;;;11.20;4.38;;;6.70;84.20;;;;;;5013169;28;20440;-54
2021/01/09 00:21:58;;;;;;;9.80;4.75;;;6.70;84.30;;;;;;5013477;28;20032;-54
2021/01/09 00:24:24;;;;;;;13.20;5.10;;;6.60;84.20;;;;;;5013351;28;20506;-53
2021/01/09 00:26:50;;;;;;;6.22;4.10;;;6.60;84.20;;;;;;5013042;28;20045;-54
2021/01/09 00:29:15;;;;;;;7.57;4.35;;;6.70;84.20;;;;;;5013771;28;20022;-53
2021/01/09 00:31:41;;;;;;;10.02;4.22;;;6.60;84.20;;;;;;5012649;28;20037;-54
2021/01/09 00:34:07;;;;;;;15.93;5.70;;;6.60;84.20;;;;;;5013337;28;20113;-53
2021/01/09 00:36:33;;;;;;;8.50;4.18;;;6.70;84.20;;;;;;5013166;28;20455;-53
2021/01/09 00:38:59;;;;;;;10.02;4.75;;;6.60;84.20;;;;;;5013476;28;20033;-53
2021/01/09 00:41:32;;;;;;;11.30;4.97;;;6.60;84.20;;;;;;5012988;28;20475;-53
2021/01/09 00:43:59;;;;;;;10.10;4.88;;;6.60;84.20;;;;;;5013143;28;20037;-53
2021/01/09 00:46:25;;;;;;;10.65;4.75;;;6.60;84.20;;;;;;5013317;28;20582;-54
2021/01/09 00:48:51;;;;;;;14.15;5.05;;;6.60;84.20;;;;;;5013383;28;20072;-53
2021/01/09 00:51:17;;;;;;;13.95;5.45;;;6.60;84.20;;;;;;5012687;28;20115;-53
2021/01/09 00:53:43;;;;;;;10.32;4.43;;;6.60;84.20;;;;;;5013081;28;20026;-54
2021/01/09 00:56:14;;;;;;;9.32;4.68;;;6.60;84.20;;;;;;5028799;28;20026;-54
2021/01/09 00:58:39;;;;;;;8.20;4.20;;;6.60;84.10;;;;;;5032912;28;20029;-54
2021/01/09 01:01:05;;;;;;;10.68;4.20;;;6.60;84.20;;;;;;5032156;28;20104;-54
2021/01/09 01:03:30;;;;;;;11.77;4.60;;;6.60;84.10;;;;;;5032917;28;20049;-53
2021/01/09 01:05:56;;;;;;;8.82;4.80;;;6.60;84.20;;;;;;5021794;28;20083;-54
2021/01/09 01:08:22;;;;;;;13.00;4.70;;;6.60;84.20;;;;;;5012895;28;20036;-53
2021/01/09 01:10:48;;;;;;;9.55;4.43;;;6.60;84.10;;;;;;5012881;28;20080;-53
2021/01/09 01:13:15;;;;;;;8.48;4.32;;;6.60;84.20;;;;;;5012823;28;20058;-54
2021/01/09 01:15:41;;;;;;;10.25;4.60;;;6.60;84.10;;;;;;5012539;28;20076;-53
2021/01/09 01:18:06;;;;;;;9.23;3.72;;;6.60;84.10;;;;;;5013358;28;20037;-53
2021/01/09 01:20:32;;;;;;;10.65;4.30;;;6.60;84.10;;;;;;5016370;28;20022;-53
2021/01/09 01:22:58;;;;;;;7.03;3.67;;;6.60;84.10;;;;;;5016513;28;20371;-53
2021/01/09 01:25:23;;;;;;;13.88;4.60;;;6.60;84.10;;;;;;5016270;28;20602;-54
2021/01/09 01:27:49;;;;;;;8.30;4.38;;;6.60;84.10;;;;;;5016202;28;20038;-53
2021/01/09 01:30:15;;;;;;;11.25;5.10;;;6.60;84.10;;;;;;5015883;28;20050;-54
2021/01/09 01:32:41;;;;;;;12.45;5.50;;;6.60;84.10;;;;;;5016067;28;20473;-54
2021/01/09 01:35:07;;;;;;;11.25;5.00;;;6.60;84.10;;;;;;5016263;28;20112;-54
2021/01/09 01:37:33;;;;;;;11.40;4.78;;;6.60;84.10;;;;;;5015900;28;20338;-54
2021/01/09 01:39:58;;;;;;;8.32;4.22;;;6.60;84.10;;;;;;5016007;28;20026;-54
2021/01/09 01:42:24;;;;;;;11.98;4.97;;;6.60;84.10;;;;;;5016060;28;20037;-53
2021/01/09 01:44:50;;;;;;;14.13;5.50;;;6.60;84.00;;;;;;5015709;28;20034;-54
2021/01/09 01:47:20;;;;;;;10.10;4.55;;;6.60;84.10;;;;;;5015821;28;20081;-54
2021/01/09 01:49:46;;;;;;;;;;;6.60;84.10;;;;;;5016429;28;20029;-53
2021/01/09 01:52:16;;;;;;;9.73;4.78;;;6.60;84.10;;;;;;5015735;28;19984;-54
2021/01/09 01:54:44;;;;;;;9.63;4.82;;;6.60;84.10;;;;;;5015918;28;20026;-54
2021/01/09 01:57:12;;;;;;;13.63;5.35;;;6.60;84.10;;;;;;5015500;28;20033;-54
2021/01/09 01:59:38;;;;;;;9.77;4.55;;;6.60;84.00;;;;;;5022648;28;20029;-53
2021/01/09 02:02:09;;;;;;;12.15;5.65;;;6.60;84.00;;;;;;5044833;28;20025;-54
2021/01/09 02:04:35;;;;;;;8.82;4.32;;;6.60;84.00;;;;;;5055324;28;20462;-54
2021/01/09 02:07:15;;;;;;;17.85;5.20;;;6.60;84.10;;;;;;5034902;28;20124;-53
2021/01/09 02:09:47;;;;;;;12.40;5.57;;;6.60;84.00;;;;;;5035195;28;20079;-54
2021/01/09 02:12:17;;;;;;;10.95;5.15;;;6.60;84.10;;;;;;5035120;28;20408;-54
2021/01/09 02:14:43;;;;;;;;;;;6.50;84.10;;;;;;5035727;28;20030;-54
2021/01/09 02:17:09;;;;;;;13.88;5.20;;;6.60;84.10;;;;;;5035089;28;20008;-54
2021/01/09 02:19:39;;;;;;;8.55;4.57;;;6.60;84.00;;;;;;5035307;28;20033;-53
2021/01/09 02:22:08;;;;;;;10.97;4.70;;;6.60;84.10;;;;;;5034782;28;20060;-54
2021/01/09 02:24:34;;;;;;;13.35;4.97;;;6.60;84.10;;;;;;5035214;28;20049;-54
2021/01/09 02:27:04;;;;;;;13.48;4.90;;;6.60;84.00;;;;;;5035169;28;20415;-53
2021/01/09 02:29:33;;;;;;;11.95;4.75;;;6.60;84.00;;;;;;5034266;28;20036;-54
2021/01/09 02:32:04;;;;;;;9.10;4.05;;;6.60;84.50;;;;;;5022820;28;20436;-54
2021/01/09 02:34:36;;;;;;;10.13;4.70;;;6.60;84.10;;;;;;5015065;28;20105;-54
2021/01/09 02:37:02;;;;;;;13.38;5.30;;;6.60;84.00;;;;;;5014915;28;20052;-54
2021/01/09 02:39:28;;;;;;;10.73;3.72;;;6.60;84.00;;;;;;5014873;28;20057;-54
2021/01/09 02:41:55;;;;;;;8.85;4.75;;;6.60;84.00;;;;;;5014672;28;20081;-54
2021/01/09 02:44:21;;;;;;;12.77;5.40;;;6.60;84.00;;;;;;5014870;28;20490;-53
2021/01/09 02:46:47;;;;;;;9.43;4.65;;;6.60;84.00;;;;;;5014818;28;20046;-54
2021/01/09 02:49:12;;;;;;;11.27;4.25;;;6.60;84.00;;;;;;5014458;28;20028;-54
2021/01/09 02:51:38;;;;;;;11.52;4.78;;;6.60;84.00;;;;;;5014755;28;20076;-53
2021/01/09 02:54:04;;;;;;;11.18;4.50;;;6.60;84.10;;;;;;5014820;28;20126;-54
2021/01/09 02:56:29;;;;;;;9.55;4.80;;;6.60;84.00;;;;;;5033429;28;20462;-54
2021/01/09 02:58:55;;;;;;;11.65;4.57;;;6.60;84.00;;;;;;5034314;28;20025;-54
2021/01/09 03:01:26;;;;;;;11.50;5.03;;;6.60;84.00;;;;;;5034226;28;20048;-54
2021/01/09 03:03:52;;;;;;;10.75;4.88;;;6.60;84.70;;;;;;5034091;28;20053;-54
2021/01/09 03:06:17;;;;;;;10.43;4.60;;;6.60;84.70;;;;;;5020497;28;20077;-54
2021/01/09 03:08:43;;;;;;;11.50;5.22;;;6.50;83.90;;;;;;5014408;28;20108;-54
2021/01/09 03:11:08;;;;;;;9.50;4.05;;;6.60;84.00;;;;;;5014337;28;20026;-53
2021/01/09 03:13:34;;;;;;;8.93;4.72;;;6.60;84.00;;;;;;5014200;28;20463;-53
2021/01/09 03:16:00;;;;;;;9.45;4.13;;;6.50;83.90;;;;;;5014373;28;20076;-54
2021/01/09 03:18:25;;;;;;;8.38;3.97;;;6.60;84.00;;;;;;5013956;28;20033;-53
2021/01/09 03:20:51;;;;;;;10.75;5.03;;;6.50;83.90;;;;;;5014154;28;20477;-54
2021/01/09 03:23:17;;;;;;;10.15;4.63;;;6.60;84.00;;;;;;5014194;28;20022;-54
2021/01/09 03:25:42;;;;;;;11.02;5.40;;;6.50;83.90;;;;;;5013287;28;20026;-54
2021/01/09 03:28:08;;;;;;;10.55;4.28;;;6.60;84.00;;;;;;5014057;28;20077;-53
2021/01/09 03:30:34;;;;;;;8.00;4.20;;;6.60;84.00;;;;;;5013774;28;20032;-53
2021/01/09 03:32:59;;;;;;;7.55;4.55;;;6.60;84.00;;;;;;5014084;28;20109;-54
2021/01/09 03:35:26;;;;;;;11.70;5.05;;;6.60;84.00;;;;;;5013684;28;20017;-54
2021/01/09 03:37:52;;;;;;;11.85;5.30;;;6.60;84.00;;;;;;5013826;28;20375;-54
2021/01/09 03:40:18;;;;;;;14.57;5.72;;;6.50;83.90;;;;;;5013847;28;20076;-53
2021/01/09 03:42:44;;;;;;;9.88;4.53;;;6.50;83.90;;;;;;5014093;28;20033;-54
2021/01/09 03:45:10;;;;;;;12.60;4.75;;;6.50;83.90;;;;;;5013934;28;20447;-53
2021/01/09 03:47:36;;;;;;;11.95;5.40;;;6.60;84.00;;;;;;5013780;28;20085;-53
2021/01/09 03:50:04;;;;;;;11.95;4.85;;;6.60;83.90;;;;;;5012683;28;20021;-54
2021/01/09 03:52:30;;;;;;;14.20;5.53;;;6.60;83.90;;;;;;5033348;28;20025;-54
2021/01/09 03:54:55;;;;;;;11.20;4.82;;;6.60;83.90;;;;;;5032851;28;20404;-54
2021/01/09 03:57:22;;;;;;;11.65;5.15;;;6.50;83.90;;;;;;5033574;28;20045;-54
2021/01/09 03:59:48;;;;;;;15.57;5.32;;;6.60;84.00;;;;;;5033408;28;20446;-54
2021/01/09 04:02:14;;;;;;;9.70;5.03;;;6.60;83.90;;;;;;5032909;28;20034;-53
2021/01/09 04:04:39;;;;;;;15.02;4.85;;;6.60;83.90;;;;;;5033053;28;20034;-53
2021/01/09 04:07:05;;;;;;;13.85;5.35;;;6.60;83.90;;;;;;5033239;28;20041;-54
2021/01/09 04:09:30;;;;;;;11.07;5.05;;;6.60;83.90;;;;;;5033476;28;20144;-54
2021/01/09 04:11:56;;;;;;;10.23;4.47;;;6.60;83.90;;;;;;5032948;28;20355;-54
2021/01/09 04:14:22;;;;;;;10.65;4.32;;;6.60;83.80;;;;;;5032798;28;20079;-54
2021/01/09 04:16:47;;;;;;;8.95;3.97;;;6.60;83.90;;;;;;5032893;28;20455;-54
2021/01/09 04:19:13;;;;;;;9.60;4.15;;;6.60;83.80;;;;;;5033058;28;20021;-54
2021/01/09 04:21:52;;;;;;;10.13;5.00;;;6.60;83.80;;;;;;5032980;28;20026;-53
2021/01/09 04:24:22;;;;;;;10.82;4.55;;;6.60;83.80;;;;;;5033210;28;20022;-53
2021/01/09 04:26:55;;;;;;;12.07;5.05;;;6.60;83.80;;;;;;5032910;28;20470;-53
2021/01/09 04:29:21;;;;;;;10.95;5.30;;;6.60;83.80;;;;;;5032969;28;20035;-53
2021/01/09 04:31:47;;;;;;;9.30;5.05;;;6.60;83.80;;;;;;5032667;28;20105;-54
2021/01/09 04:34:13;;;;;;;11.80;5.65;;;6.50;83.80;;;;;;5032882;28;20018;-54
2021/01/09 04:36:39;;;;;;;8.52;3.95;;;6.60;83.90;;;;;;5032942;28;20022;-53
2021/01/09 04:39:05;;;;;;;8.85;3.95;;;6.60;83.90;;;;;;5032949;28;20037;-54
2021/01/09 04:41:34;;;;;;;10.30;4.47;;;6.60;83.80;;;;;;5032600;28;20117;-53
2021/01/09 04:44:00;;;;;;;8.00;3.42;;;6.60;83.90;;;;;;5033024;28;20033;-54
2021/01/09 04:46:27;;;;;;;10.63;4.57;;;6.60;83.80;;;;;;5032799;28;20056;-54
2021/01/09 04:48:53;;;;;;;11.55;5.07;;;6.60;83.80;;;;;;5032871;28;20039;-54
2021/01/09 04:51:19;;;;;;;8.20;4.60;;;6.60;83.80;;;;;;5032897;28;20018;-54
2021/01/09 04:53:47;;;;;;;7.50;4.30;;;6.60;83.80;;;;;;5034767;28;20112;-54
2021/01/09 04:56:12;;;;;;;9.57;4.82;;;6.60;83.80;;;;;;5031997;28;20029;-54
2021/01/09 04:58:39;;;;;;;9.25;4.78;;;6.60;83.70;;;;;;5036542;28;20351;-54
2021/01/09 05:01:05;;;;;;;8.05;4.72;;;6.60;83.70;;;;;;5036363;28;20040;-54
2021/01/09 05:03:31;;;;;;;9.40;4.60;;;6.60;83.60;;;;;;5036768;28;20032;-54
2021/01/09 05:05:57;;;;;;;12.75;5.13;;;6.60;83.60;;;;;;5025611;28;20346;-54
2021/01/09 05:08:22;;;;;;;10.35;5.00;;;6.60;83.60;;;;;;5016795;28;20026;-54
2021/01/09 05:10:49;;;;;;;14.20;5.35;;;6.60;83.60;;;;;;5016043;28;20022;-54
2021/01/09 05:13:20;;;;;;;12.70;5.25;;;6.60;83.50;;;;;;5016848;28;20034;-54
2021/01/09 05:15:46;;;;;;;9.45;5.18;;;6.60;83.50;;;;;;5016830;28;20026;-54
2021/01/09 05:18:12;;;;;;;10.32;4.93;;;6.60;83.60;;;;;;5016536;28;20124;-54
2021/01/09 05:20:37;;;;;;;11.23;5.35;;;6.60;83.60;;;;;;5016167;28;20465;-54
2021/01/09 05:23:03;;;;;;;9.30;4.55;;;6.60;83.60;;;;;;5016483;28;20036;-54
2021/01/09 05:25:29;;;;;;;9.35;4.82;;;6.60;83.60;;;;;;5016285;28;20216;-54
2021/01/09 05:27:57;;;;;;;8.80;5.15;;;6.60;83.50;;;;;;5016343;28;20063;-54
2021/01/09 05:30:23;;;;;;;9.88;5.10;;;6.60;83.50;;;;;;5016193;28;20018;-54
2021/01/09 05:32:51;;;;;;;13.35;4.93;;;6.60;83.50;;;;;;5016151;28;20088;-54
2021/01/09 05:35:17;;;;;;;11.38;5.75;;;6.60;83.50;;;;;;5016389;28;20026;-54
2021/01/09 05:37:50;;;;;;;12.25;5.25;;;6.60;83.50;;;;;;5015796;28;20356;-54
2021/01/09 05:40:17;;;;;;;15.15;5.47;;;6.60;83.50;;;;;;5016275;28;20022;-54
2021/01/09 05:42:43;;;;;;;12.20;5.05;;;6.50;83.50;;;;;;5016192;28;20113;-54
2021/01/09 05:45:10;;;;;;;12.40;4.93;;;6.60;83.60;;;;;;5015937;28;20426;-54
2021/01/09 05:47:38;;;;;;;11.90;5.20;;;6.60;83.50;;;;;;5015964;28;20069;-54
2021/01/09 05:50:06;;;;;;;12.98;5.72;;;6.60;83.60;;;;;;5015736;28;20507;-54
2021/01/09 05:52:39;;;;;;;10.25;5.30;;;6.60;83.60;;;;;;5015364;28;20034;-54
2021/01/09 05:55:09;;;;;;;12.32;5.53;;;6.60;83.60;;;;;;5022915;28;20024;-54
2021/01/09 05:57:36;;;;;;;14.45;5.88;;;6.60;83.50;;;;;;5035472;28;20524;-53
2021/01/09 06:00:07;;;;;;;10.57;5.35;;;6.60;83.60;;;;;;5035544;28;20371;-54
2021/01/09 06:02:54;;;;;;;13.25;5.20;;;6.60;83.60;;;;;;5034146;28;20447;-54
2021/01/09 06:05:22;;;;;;;8.93;4.63;;;6.60;83.60;;;;;;5029822;28;20110;-54
2021/01/09 06:07:49;;;;;;;16.25;6.10;;;6.60;83.60;;;;;;5026259;28;20042;-54
2021/01/09 06:10:20;;;;;;;11.60;4.93;;;6.60;83.60;;;;;;5017554;28;20347;-54
2021/01/09 06:13:00;;;;;;;13.32;5.03;;;6.60;83.60;;;;;;5015480;28;20025;-54
2021/01/09 06:15:30;;;;;;;11.52;5.43;;;6.60;83.60;;;;;;5027076;28;20030;-54
2021/01/09 06:17:59;;;;;;;17.42;6.35;;;6.50;83.50;;;;;;5032802;28;20025;-54
2021/01/09 06:20:25;;;;;;;14.48;5.53;;;6.50;83.50;;;;;;5035042;28;20412;-54
2021/01/09 06:22:54;;;;;;;12.75;5.57;;;6.60;83.60;;;;;;5022288;28;20057;-54
2021/01/09 06:25:21;;;;;;;14.65;5.72;;;6.50;83.50;;;;;;5025462;28;20147;-54
2021/01/09 06:27:52;;;;;;;14.20;5.72;;;6.50;83.60;;;;;;5016801;28;20123;-54
2021/01/09 06:30:18;;;;;;;;;;;6.50;83.60;;;;;;5019290;28;20362;-54
2021/01/09 06:32:56;;;;;;;10.25;4.72;;;6.50;83.60;;;;;;5034174;28;19905;-54
2021/01/09 06:35:22;;;;;;;10.48;5.53;;;6.50;83.60;;;;;;5035061;28;20459;-54
2021/01/09 06:37:48;;;;;;;10.77;4.97;;;6.60;83.60;;;;;;5034629;28;20049;-54
2021/01/09 06:40:16;;;;;;;10.05;4.57;;;6.50;83.50;;;;;;5034614;28;20359;-54
2021/01/09 06:42:45;;;;;;;11.10;5.65;;;6.50;83.50;;;;;;5026965;28;20049;-54
2021/01/09 06:45:12;;;;;;;12.73;5.70;;;6.50;83.50;;;;;;5014390;28;20451;-54
2021/01/09 06:47:38;;;;;;;10.52;5.20;;;6.50;83.50;;;;;;5014574;28;20042;-53
2021/01/09 06:50:19;;;;;;;13.38;5.68;;;6.50;83.60;;;;;;5024834;28;20026;-54
2021/01/09 06:53:14;;;;;;;10.68;5.78;;;6.50;83.70;;;;;;5028680;28;20026;-53
2021/01/09 06:55:40;;;;;;;12.95;5.88;;;6.50;83.70;;;;;;5022789;28;20037;-54
2021/01/09 06:58:14;;;;;;;12.07;6.00;;;6.50;83.60;;;;;;5023786;28;20088;-54
2021/01/09 07:00:39;;;;;;;12.23;6.75;;;6.50;83.50;;;;;;5014573;28;20030;-54
2021/01/09 07:03:15;;;;;;;14.82;6.93;;;6.50;83.50;;;;;;5020690;28;20568;-54
2021/01/09 07:05:50;;;;;;;11.45;6.05;;;6.50;83.40;;;;;;5023838;28;20037;-54
2021/01/09 07:08:29;;;;;;;14.45;7.05;;;6.50;83.40;;;;;;5014612;28;20054;-54
2021/01/09 07:11:00;;;;;;;16.50;6.85;;;6.50;83.40;;;;;;5016635;28;20022;-54
2021/01/09 07:13:27;;;;;;;13.15;6.30;;;6.50;83.50;;;;;;5017622;28;20091;-54
2021/01/09 07:16:13;;;;;;;10.57;5.88;;;6.50;83.50;;;;;;5023016;28;20037;-54
2021/01/09 07:18:41;;;;;;;17.40;6.45;;;6.50;83.50;;;;;;5018651;28;20084;-53
2021/01/09 07:21:07;;;;;;;13.35;7.22;;;6.50;83.50;;;;;;5018226;28;20034;-54
2021/01/09 07:23:34;;;;;;;20.50;8.32;;;6.50;83.50;;;;;;5025274;28;20021;-54
2021/01/09 07:26:03;;;;;;;22.08;8.70;;;6.50;83.50;;;;;;5025790;28;20053;-54
2021/01/09 07:28:34;;;;;;;12.18;5.93;;;6.50;83.60;;;;;;5012179;28;20033;-53
2021/01/09 07:31:02;;;;;;;;;;;6.50;83.60;;;;;;5014904;28;20033;-54
2021/01/09 07:33:30;;;;;;;14.82;6.40;;;6.50;83.60;;;;;;5017721;28;19905;-54
2021/01/09 07:35:56;;;;;;;15.70;6.20;;;6.50;83.50;;;;;;5014427;28;20161;-53
2021/01/09 07:38:22;;;;;;;13.45;6.70;;;6.50;83.60;;;;;;5027434;28;20033;-53
2021/01/09 07:41:29;;;;;;;17.38;7.55;;;6.50;83.60;;;;;;5020582;28;20029;-54
2021/01/09 07:44:10;;;;;;;13.65;7.35;;;6.50;83.50;;;;;;5022351;28;20042;-54
2021/01/09 07:46:35;;;;;;;;;;;6.50;83.50;;;;;;5024970;28;20034;-54
2021/01/09 07:49:03;;;;;;;12.90;5.80;;;6.50;83.60;;;;;;5018709;28;20007;-54
2021/01/09 07:52:03;;;;;;;15.82;6.15;;;6.50;83.50;;;;;;5026002;28;20033;-54
2021/01/09 07:54:44;;;;;;;12.77;6.53;;;6.50;83.50;;;;;;5015861;28;20048;-54
2021/01/09 07:57:18;;;;;;;15.05;6.72;;;6.50;83.40;;;;;;5017358;28;20022;-53
2021/01/09 08:00:00;;;;;;;12.95;6.78;;;6.50;83.40;;;;;;5024947;28;20359;-53
2021/01/09 08:02:30;;;;;;;16.00;7.30;;;6.50;83.30;;;;;;5022820;28;20025;-54
2021/01/09 08:05:01;;;;;;;13.05;7.43;;;6.50;83.40;;;;;;5021050;28;20431;-54
2021/01/09 08:07:27;;;;;;;16.27;7.00;;;6.50;83.30;;;;;;5025768;28;20030;-54
2021/01/09 08:09:53;;;;;;;19.00;7.53;;;6.50;83.30;;;;;;5024613;28;20027;-54
2021/01/09 08:12:28;;;;;;;15.95;7.95;;;6.50;83.30;;;;;;5023637;28;20401;-54
2021/01/09 08:14:58;;;;;;;20.02;8.77;;;6.50;83.30;;;;;;5019570;28;20025;-54
2021/01/09 08:17:24;;;;;;;16.55;7.57;;;6.50;83.20;;;;;;5030435;28;20064;-54
2021/01/09 08:19:49;;;;;;;19.63;8.30;;;6.50;83.20;;;;;;5018617;28;20581;-54
2021/01/09 08:22:15;;;;;;;15.63;6.47;;;6.60;84.00;;;;;;5032030;28;20037;-54
2021/01/09 08:24:41;;;;;;;19.35;6.85;;;6.60;83.20;;;;;;5021305;28;20458;-54
2021/01/09 08:27:07;;;;;;;16.58;6.65;;;6.60;83.20;;;;;;5013181;28;20045;-54
2021/01/09 08:29:33;;;;;;;19.88;8.50;;;6.60;83.10;;;;;;5020859;28;20026;-54
2021/01/09 08:31:59;;;;;;;19.08;8.32;;;6.60;83.10;;;;;;5017040;28;20121;-54
2021/01/09 08:34:25;;;;;;;15.85;8.32;;;6.70;83.10;;;;;;5017217;28;20026;-54
2021/01/09 08:36:58;;;;;;;22.48;9.35;;;6.70;83.00;;;;;;5028326;28;20037;-54
2021/01/09 08:39:25;;;;;;;20.45;9.88;;;6.80;83.10;;;;;;5027489;28;20037;-53
2021/01/09 08:41:54;;;;;;;18.23;7.63;;;6.80;83.10;;;;;;5018165;28;20057;-54
2021/01/09 08:44:19;;;;;;;17.73;8.65;;;6.90;83.10;;;;;;5026757;28;20018;-53
2021/01/09 08:46:46;;;;;;;21.27;8.63;;;6.90;83.00;;;;;;5024233;28;20052;-53
2021/01/09 08:49:28;;;;;;;23.50;10.07;;;6.90;82.80;;;;;;5022722;28;20510;-54
2021/01/09 08:52:06;;;;;;;18.73;9.07;;;6.90;82.70;;;;;;5022982;28;20048;-54
2021/01/09 08:54:33;;;;;;;16.63;8.25;;;7.00;82.70;;;;;;5026338;28;20033;-54
2021/01/09 08:57:01;;;;;;;23.83;9.15;;;6.90;82.40;;;;;;5024215;28;20069;-54
2021/01/09 08:59:27;;;;;;;21.05;9.15;;;7.00;82.40;;;;;;5018872;28;20025;-54
2021/01/09 09:01:57;;;;;;;18.00;8.60;;;6.90;82.40;;;;;;5033634;28;20025;-53
2021/01/09 09:04:24;;;;;;;18.88;8.63;;;6.90;82.40;;;;;;5028725;28;20494;-53
2021/01/09 09:07:20;;;;;;;16.63;7.75;;;7.00;82.40;;;;;;5020679;28;20041;-54
2021/01/09 09:09:47;;;;;;;13.70;6.95;;;6.90;82.20;;;;;;5051860;28;20034;-54
2021/01/09 09:12:21;;;;;;;15.13;7.53;;;6.90;82.20;;;;;;5020426;28;20037;-54
2021/01/09 09:14:57;;;;;;;20.35;7.88;;;6.90;83.00;;;;;;5016902;28;20034;-54
2021/01/09 09:17:24;;;;;;;11.73;6.80;;;6.90;82.30;;;;;;5017684;28;20025;-54
2021/01/09 09:19:50;;;;;;;15.05;7.40;;;6.90;82.20;;;;;;5016503;28;20460;-54
2021/01/09 09:22:26;;;;;;;16.42;7.32;;;7.00;82.30;;;;;;5030879;28;20084;-54
2021/01/09 09:24:52;;;;;;;16.75;7.50;;;6.90;82.30;;;;;;5020625;28;20037;-54
2021/01/09 09:27:23;;;;;;;18.92;7.30;;;6.90;82.30;;;;;;5017660;28;20038;-54
2021/01/09 09:29:49;;;;;;;14.25;7.15;;;6.90;82.40;;;;;;5017530;28;20150;-53
2021/01/09 09:32:26;;;;;;;19.45;6.63;;;6.90;82.30;;;;;;5029697;28;20025;-54
2021/01/09 09:34:53;;;;;;;20.40;8.57;;;6.90;82.30;;;;;;5019848;28;20097;-54
2021/01/09 09:37:19;;;;;;;19.90;8.18;;;6.90;82.30;;;;;;5015810;28;20060;-54
2021/01/09 09:39:44;;;;;;;16.35;6.95;;;6.90;82.30;;;;;;5015150;28;20276;-53
2021/01/09 09:42:10;;;;;;;23.55;8.93;;;7.00;82.30;;;;;;5020566;28;20367;-54
2021/01/09 09:44:40;;;;;;;22.08;8.57;;;7.00;82.30;;;;;;5025231;28;20080;-54
2021/01/09 09:47:10;;;;;;;18.75;6.30;;;7.00;82.30;;;;;;5018157;28;20053;-54
2021/01/09 09:49:38;;;;;;;21.00;8.88;;;7.00;82.30;;;;;;5029019;28;20525;-53
2021/01/09 09:52:20;;;;;;;20.90;8.70;;;7.00;82.30;;;;;;5028583;28;20066;-54
2021/01/09 09:54:47;;;;;;;18.67;9.07;;;7.00;82.30;;;;;;5023886;28;20026;-53
2021/01/09 09:57:23;;;;;;;15.77;7.72;;;7.00;82.30;;;;;;5028611;28;20037;-54
2021/01/09 10:00:01;;;;;;;19.85;8.98;;;7.00;82.40;;;;;;5017470;28;20030;-52
2021/01/09 10:02:26;;;;;;;15.85;8.20;;;7.00;82.50;;;;;;5025751;28;20110;-52
2021/01/09 10:04:52;;;;;;;20.80;8.55;;;6.90;81.40;;;;;;5033488;28;20053;-52
2021/01/09 10:07:21;;;;;;;19.30;8.10;;;6.70;80.30;;;;;;5033140;28;20352;-52
2021/01/09 10:09:48;;;;;;;19.83;9.38;;;6.60;79.50;;;;;;5026725;28;20022;-52
2021/01/09 10:12:13;;;;;;;18.00;8.85;;;6.50;79.10;;;;;;5035392;28;20025;-52
2021/01/09 10:14:39;;;;;;;17.42;9.00;;;6.40;78.70;;;;;;5035479;28;20506;-52
2021/01/09 10:17:05;;;;;;;19.65;8.98;;;6.40;78.30;;;;;;5035276;28;20044;-52
2021/01/09 10:19:30;;;;;;;17.50;8.32;;;6.30;78.00;;;;;;5035067;28;20343;-52
2021/01/09 10:21:56;;;;;;;16.75;8.52;;;6.30;77.70;;;;;;5034698;28;20026;-52
2021/01/09 10:24:21;;;;;;;19.02;8.88;;;6.20;77.30;;;;;;5035370;28;20451;-52
2021/01/09 10:26:47;;;;;;;20.52;8.77;;;6.20;77.30;;;;;;5034843;28;20037;-52
2021/01/09 10:29:14;;;;;;;15.07;7.22;;;6.20;76.90;;;;;;5035281;28;20033;-52
2021/01/09 10:31:40;;;;;;;18.63;8.10;;;6.10;77.50;;;;;;5034671;28;20116;-52
2021/01/09 10:34:07;;;;;;;17.98;9.52;;;6.20;76.50;;;;;;5034909;28;20040;-52
2021/01/09 10:36:35;;;;;;;19.33;8.48;;;6.10;76.50;;;;;;5034660;28;20079;-52
2021/01/09 10:39:02;;;;;;;23.42;8.25;;;6.10;76.50;;;;;;5030624;28;20045;-52
2021/01/09 10:41:28;;;;;;;13.85;6.03;;;6.10;76.20;;;;;;5028297;28;20079;-52
2021/01/09 10:43:54;;;;;;;17.92;7.57;;;6.10;75.90;;;;;;5026081;28;20053;-52
2021/01/09 10:46:24;;;;;;;19.15;7.57;;;6.10;75.90;;;;;;5032329;28;20060;-52
2021/01/09 10:48:50;;;;;;;;;;;6.10;75.90;;;;;;5015331;28;20030;-52
2021/01/09 10:51:17;;;;;;;22.60;9.80;;;6.10;75.60;;;;;;5013623;28;19955;-52
2021/01/09 10:53:43;;;;;;;22.83;8.10;;;6.10;75.50;;;;;;5014890;28;20156;-52
2021/01/09 10:56:09;;;;;;;19.52;7.20;;;6.00;75.50;;;;;;5030574;28;20466;-52
2021/01/09 10:58:35;;;;;;;18.30;7.60;;;6.00;75.60;;;;;;5034560;28;20018;-52
2021/01/09 11:01:01;;;;;;;19.42;7.68;;;6.00;75.40;;;;;;5033953;28;20030;-52
2021/01/09 11:03:27;;;;;;;23.17;8.88;;;6.00;75.30;;;;;;5034478;28;20336;-52
2021/01/09 11:05:52;;;;;;;12.70;7.07;;;6.00;75.10;;;;;;5023524;28;20034;-52
2021/01/09 11:08:18;;;;;;;17.17;8.13;;;6.00;75.10;;;;;;5016544;28;20038;-52
2021/01/09 11:10:44;;;;;;;16.17;6.85;;;6.00;74.80;;;;;;5022479;28;20529;-52
2021/01/09 11:13:10;;;;;;;18.95;8.15;;;6.00;74.80;;;;;;5024723;28;20033;-52
2021/01/09 11:15:35;;;;;;;17.13;7.00;;;6.00;74.80;;;;;;5023833;28;20359;-52
2021/01/09 11:18:01;;;;;;;14.10;6.72;;;6.00;74.60;;;;;;5022489;28;20076;-52
2021/01/09 11:20:27;;;;;;;13.25;6.32;;;6.00;74.20;;;;;;5024523;28;20037;-52
2021/01/09 11:22:52;;;;;;;22.17;7.53;;;6.00;74.30;;;;;;5023349;28;20083;-52
2021/01/09 11:25:18;;;;;;;13.02;5.97;;;6.00;74.00;;;;;;5022847;28;20025;-52
2021/01/09 11:27:44;;;;;;;15.05;7.05;;;6.00;74.00;;;;;;5024796;28;20036;-52
2021/01/09 11:30:10;;;;;;;19.63;7.70;;;6.00;74.10;;;;;;5023504;28;20036;-52
2021/01/09 11:32:36;;;;;;;11.95;5.07;;;6.00;74.10;;;;;;5018805;28;20140;-52
2021/01/09 11:35:02;;;;;;;15.45;6.53;;;6.00;73.70;;;;;;5021127;28;20466;-52
2021/01/09 11:37:28;;;;;;;13.35;5.28;;;6.00;73.60;;;;;;5033740;28;20124;-52
2021/01/09 11:39:54;;;;;;;12.88;6.38;;;6.00;73.20;;;;;;5033668;28;20100;-52
2021/01/09 11:42:23;;;;;;;10.40;5.32;;;6.00;73.00;;;;;;5033375;28;20029;-52
2021/01/09 11:44:49;;;;;;;17.95;6.85;;;6.00;73.10;;;;;;5033686;28;20021;-52
2021/01/09 11:47:15;;;;;;;11.10;5.63;;;6.00;73.00;;;;;;5026163;28;20041;-52
2021/01/09 11:49:41;;;;;;;12.27;6.40;;;5.90;72.20;;;;;;5013989;28;20108;-52
2021/01/09 11:52:07;;;;;;;13.20;6.05;;;6.00;72.70;;;;;;5013715;28;20113;-53
2021/01/09 11:54:33;;;;;;;11.43;5.75;;;6.00;73.60;;;;;;5016511;28;20164;-53
2021/01/09 11:57:00;;;;;;;15.93;6.00;;;6.00;74.00;;;;;;5033303;28;20036;-53
2021/01/09 11:59:25;;;;;;;12.25;5.18;;;6.10;74.40;;;;;;5033592;28;20076;-54
2021/01/09 12:01:51;;;;;;;14.68;5.88;;;6.20;74.60;;;;;;5032996;28;20099;-53
2021/01/09 12:04:17;;;;;;;11.88;5.57;;;6.20;74.90;;;;;;5033264;28;20489;-54
2021/01/09 12:06:43;;;;;;;12.73;6.38;;;6.20;74.60;;;;;;5015987;28;20045;-53
2021/01/09 12:09:09;;;;;;;12.38;6.72;;;6.30;74.50;;;;;;5013705;28;20029;-53
2021/01/09 12:11:34;;;;;;;14.60;6.68;;;6.30;74.50;;;;;;5013426;28;20041;-53
2021/01/09 12:14:01;;;;;;;21.38;8.07;;;6.30;74.60;;;;;;5013701;28;20030;-53
2021/01/09 12:16:28;;;;;;;13.50;6.68;;;6.40;74.70;;;;;;5013101;28;20478;-54
2021/01/09 12:18:54;;;;;;;19.33;7.15;;;6.40;75.30;;;;;;5013776;28;20100;-53
2021/01/09 12:21:20;;;;;;;20.38;8.30;;;6.40;74.70;;;;;;5013372;28;20456;-54
2021/01/09 12:23:45;;;;;;;16.83;7.53;;;6.50;74.60;;;;;;5013229;28;20030;-53
2021/01/09 12:26:17;;;;;;;18.75;8.55;;;6.50;74.70;;;;;;5013406;28;20026;-53
2021/01/09 12:28:42;;;;;;;17.73;7.50;;;6.50;74.90;;;;;;5013522;28;20034;-53
2021/01/09 12:31:08;;;;;;;17.83;6.82;;;6.50;75.30;;;;;;5012650;28;20443;-54
2021/01/09 12:33:33;;;;;;;16.27;7.47;;;6.50;75.20;;;;;;5013550;28;20026;-53
2021/01/09 12:35:59;;;;;;;16.63;7.05;;;6.50;75.30;;;;;;5013278;28;20061;-53
2021/01/09 12:38:24;;;;;;;18.70;8.15;;;6.50;75.10;;;;;;5013196;28;20107;-54
2021/01/09 12:40:50;;;;;;;16.40;7.65;;;6.60;75.00;;;;;;5013075;28;20030;-53
2021/01/09 12:43:16;;;;;;;18.05;8.00;;;6.60;75.00;;;;;;5013632;28;20033;-54
2021/01/09 12:45:41;;;;;;;19.65;7.82;;;6.60;75.10;;;;;;5013089;28;20355;-53
2021/01/09 12:48:07;;;;;;;17.10;7.50;;;6.60;75.10;;;;;;5013017;28;20460;-53
2021/01/09 12:50:33;;;;;;;17.58;7.75;;;6.70;75.30;;;;;;5013293;28;20030;-53
2021/01/09 12:52:58;;;;;;;19.85;7.97;;;6.60;76.10;;;;;;5012752;28;20447;-54